Time;durP1;ratioP1;P1;durP2;ratioP2;P2;SDS_P1;SDS_P2;PMS_P1;PMS_P2;Temp;Humidity;BMP_temperature;BMP_pressure;BME280_temperature;BME280_humidity;BME280_pressure;Samples;Min_cycle;Max_cycle;Signal;HPM_P1;HPM_P2
2022/08/19 00:02:03;;;;;;;9.68;6.88;;;;;;;18.43;100.00;100326.78;6260922;28;20041;-88
2022/08/19 00:05:06;;;;;;;7.22;6.53;;;;;;;18.40;100.00;100342.03;6259458;28;20494;-88
2022/08/19 00:08:08;;;;;;;7.50;6.15;;;;;;;18.41;100.00;100343.63;6274738;28;20574;-88
2022/08/19 00:11:10;;;;;;;10.50;6.43;;;;;;;18.47;100.00;100335.09;6270147;28;20272;-88
2022/08/19 00:14:26;;;;;;;10.85;6.80;;;;;;;18.42;100.00;100334.81;6265819;28;20041;-88
2022/08/19 00:17:28;;;;;;;8.57;6.55;;;;;;;18.43;100.00;100344.28;6271343;28;20051;-88
2022/08/19 00:20:31;;;;;;;11.98;6.80;;;;;;;18.37;100.00;100337.13;6269309;28;20040;-88
2022/08/19 00:23:36;;;;;;;7.32;6.38;;;;;;;18.37;100.00;100324.03;6255906;28;20614;-88
2022/08/19 00:26:38;;;;;;;10.38;6.90;;;;;;;18.36;100.00;100330.25;6239749;28;20526;-88
2022/08/19 00:29:40;;;;;;;9.95;6.80;;;;;;;18.33;100.00;100309.66;6256248;28;20052;-88
2022/08/19 00:32:42;;;;;;;10.77;7.15;;;;;;;18.34;100.00;100298.19;6261732;28;20406;-88
2022/08/19 00:35:44;;;;;;;12.23;6.95;;;;;;;18.17;100.00;100293.09;6260035;28;20068;-88
2022/08/19 00:38:56;;;;;;;10.73;7.57;;;;;;;18.16;100.00;100294.09;6272413;28;20479;-88
2022/08/19 00:41:58;;;;;;;10.18;7.10;;;;;;;18.05;100.00;100292.66;6262437;28;20187;-88
2022/08/19 00:45:00;;;;;;;8.60;6.85;;;;;;;17.98;100.00;100296.16;6257592;28;20446;-88
2022/08/19 00:48:04;;;;;;;10.50;7.53;;;;;;;17.89;100.00;100300.66;6259750;28;20048;-88
2022/08/19 00:51:15;;;;;;;11.15;7.85;;;;;;;17.86;100.00;100295.75;6249486;28;20371;-88
2022/08/19 00:54:19;;;;;;;9.18;7.13;;;;;;;17.77;100.00;100296.78;6254623;28;20049;-88
2022/08/19 00:57:40;;;;;;;10.50;7.25;;;;;;;17.72;100.00;100281.59;6276225;28;20045;-88
2022/08/19 01:00:41;;;;;;;10.65;7.65;;;;;;;17.62;100.00;100273.97;6258313;28;20547;-88
2022/08/19 01:03:43;;;;;;;11.80;8.25;;;;;;;17.61;100.00;100266.28;6257945;28;20048;-88
2022/08/19 01:06:59;;;;;;;11.20;7.63;;;;;;;17.64;100.00;100260.72;6257359;28;20056;-90
2022/08/19 01:10:03;;;;;;;11.35;7.72;;;;;;;17.60;100.00;100257.63;6259089;28;20037;-88
2022/08/19 01:13:05;;;;;;;11.50;7.68;;;;;;;17.61;100.00;100261.88;6264224;28;20495;-89
2022/08/19 01:16:10;;;;;;;11.48;7.95;;;;;;;17.63;100.00;100264.31;6264149;28;20348;-89
2022/08/19 01:19:27;;;;;;;12.43;7.45;;;;;;;17.54;100.00;100266.19;6257304;28;20037;-88
2022/08/19 01:22:58;;;;;;;11.75;7.93;;;;;;;17.48;100.00;100261.63;6255326;28;20037;-89
2022/08/19 01:26:00;;;;;;;9.88;7.70;;;;;;;17.46;100.00;100265.41;6184777;28;20140;-88
2022/08/19 01:29:03;;;;;;;11.98;8.63;;;;;;;17.40;100.00;100257.25;6184008;28;20145;-88
2022/08/19 01:32:07;;;;;;;10.25;8.05;;;;;;;17.38;100.00;100255.78;6166686;28;20042;-89
2022/08/19 01:35:31;;;;;;;11.48;7.90;;;;;;;17.41;100.00;100260.66;6176565;28;20058;-89
2022/08/19 01:38:38;;;;;;;11.75;8.40;;;;;;;17.46;100.00;100257.53;6183226;28;20093;-89
2022/08/19 01:41:45;;;;;;;12.55;8.45;;;;;;;17.51;100.00;100256.03;6181408;28;20448;-89
2022/08/19 01:44:48;;;;;;;12.25;8.68;;;;;;;17.63;100.00;100244.19;6185250;28;20043;-89
2022/08/19 01:47:50;;;;;;;13.80;8.43;;;;;;;17.66;100.00;100250.88;6170690;28;20463;-89
2022/08/19 01:51:03;;;;;;;12.10;8.43;;;;;;;17.71;100.00;100245.09;6186937;28;20046;-89
2022/08/19 01:54:05;;;;;;;14.43;8.80;;;;;;;17.75;100.00;100241.16;6180021;28;20579;-89
2022/08/19 01:57:11;;;;;;;13.38;8.70;;;;;;;17.65;100.00;100236.97;6183412;28;20599;-89
2022/08/19 02:00:16;;;;;;;13.63;8.50;;;;;;;17.66;100.00;100235.16;6183963;28;20042;-89
2022/08/19 02:03:18;;;;;;;14.88;9.30;;;;;;;17.61;100.00;100237.47;6259738;28;20129;-89
2022/08/19 02:06:20;;;;;;;13.20;8.63;;;;;;;17.57;100.00;100233.59;6253191;28;20143;-88
2022/08/19 02:09:27;;;;;;;14.95;8.32;;;;;;;17.58;100.00;100240.47;6255956;28;20048;-89
2022/08/19 02:12:29;;;;;;;16.90;8.85;;;;;;;17.65;100.00;100242.19;6259111;28;20037;-88
2022/08/19 02:15:31;;;;;;;11.43;8.32;;;;;;;17.79;100.00;100245.88;6243037;28;20571;-90
2022/08/19 02:18:33;;;;;;;12.68;8.57;;;;;;;17.74;100.00;100236.91;6254094;28;20127;-88
2022/08/19 02:21:35;;;;;;;15.75;8.48;;;;;;;17.77;100.00;100245.25;6260421;28;20037;-89
2022/08/19 02:24:37;;;;;;;13.88;8.50;;;;;;;17.72;100.00;100231.84;6249354;28;20049;-89
2022/08/19 02:27:40;;;;;;;12.27;9.02;;;;;;;17.76;100.00;100240.16;6252498;28;20517;-88
2022/08/19 02:30:42;;;;;;;10.98;7.93;;;;;;;17.76;100.00;100242.78;6258931;28;20044;-89
2022/08/19 02:33:45;;;;;;;16.00;8.07;;;;;;;17.76;100.00;100237.53;6261862;28;20041;-89
2022/08/19 02:36:47;;;;;;;10.32;7.80;;;;;;;17.75;100.00;100228.88;6257245;28;20040;-89
2022/08/19 02:39:52;;;;;;;12.88;8.90;;;;;;;17.73;100.00;100236.09;6259463;28;20048;-88
2022/08/19 02:42:54;;;;;;;14.02;8.43;;;;;;;17.64;100.00;100237.97;6259326;28;20041;-88
2022/08/19 02:45:56;;;;;;;10.88;8.07;;;;;;;17.66;100.00;100240.41;6251546;28;20558;-89
2022/08/19 02:49:03;;;;;;;11.65;7.68;;;;;;;17.61;100.00;100234.88;6258325;28;20130;-89
2022/08/19 02:52:06;;;;;;;12.00;7.80;;;;;;;17.59;100.00;100231.63;6258297;28;20041;-89
2022/08/19 02:55:08;;;;;;;12.50;8.43;;;;;;;17.52;100.00;100238.56;6258116;28;20481;-89
2022/08/19 02:58:10;;;;;;;11.30;7.50;;;;;;;17.52;100.00;100241.97;6264622;28;20041;-89
2022/08/19 03:01:20;;;;;;;10.10;8.02;;;;;;;17.51;100.00;100235.09;6252693;28;20948;-88
2022/08/19 03:04:22;;;;;;;12.13;8.25;;;;;;;17.51;100.00;100229.06;6256984;28;20566;-89
2022/08/19 03:07:24;;;;;;;12.02;8.50;;;;;;;17.42;100.00;100231.72;6247538;28;20110;-89
2022/08/19 03:10:26;;;;;;;14.77;8.65;;;;;;;17.35;100.00;100236.03;6254173;28;20037;-89
2022/08/19 03:13:28;;;;;;;14.77;8.73;;;;;;;17.33;100.00;100234.56;6263841;28;20599;-88
2022/08/19 03:16:40;;;;;;;12.70;8.25;;;;;;;17.27;100.00;100243.91;6249567;28;20103;-89
2022/08/19 03:19:42;;;;;;;13.77;8.45;;;;;;;17.25;100.00;100251.13;6253270;28;20041;-89
2022/08/19 03:22:44;;;;;;;12.02;8.57;;;;;;;17.19;100.00;100252.63;6249019;28;20049;-89
2022/08/19 03:25:48;;;;;;;13.70;9.25;;;;;;;17.17;100.00;100251.16;6245419;28;20052;-88
2022/08/19 03:29:11;;;;;;;14.45;8.75;;;;;;;17.18;100.00;100250.97;6255035;28;20143;-89
2022/08/19 03:32:13;;;;;;;14.63;8.48;;;;;;;17.19;100.00;100247.41;6268228;28;20715;-89
2022/08/19 03:35:36;;;;;;;12.75;8.48;;;;;;;17.23;100.00;100250.47;6256501;28;20098;-89
2022/08/19 03:38:44;;;;;;;13.13;8.52;;;;;;;17.18;100.00;100247.56;6263687;28;20043;-89
2022/08/19 03:41:49;;;;;;;12.77;8.88;;;;;;;17.15;100.00;100253.13;6262307;28;20045;-88
2022/08/19 03:45:11;;;;;;;12.40;8.75;;;;;;;17.12;100.00;100259.53;6250835;28;20045;-89
2022/08/19 03:48:13;;;;;;;13.50;8.88;;;;;;;17.09;100.00;100265.09;6258492;28;20049;-88
2022/08/19 03:51:21;;;;;;;11.80;8.40;;;;;;;17.10;100.00;100271.13;6247392;28;20045;-88
2022/08/19 03:54:31;;;;;;;13.77;8.48;;;;;;;17.05;100.00;100269.03;6276648;28;20050;-88
2022/08/19 03:57:34;;;;;;;12.77;8.55;;;;;;;17.02;100.00;100272.00;6252504;28;20227;-88
2022/08/19 04:00:36;;;;;;;11.88;8.57;;;;;;;16.98;100.00;100268.88;6250637;28;20045;-88
2022/08/19 04:03:39;;;;;;;13.73;8.18;;;;;;;16.97;100.00;100269.88;6255409;28;20128;-88
2022/08/19 04:06:41;;;;;;;11.25;8.20;;;;;;;16.96;100.00;100270.03;6261721;28;20078;-89
2022/08/19 04:09:43;;;;;;;12.40;8.13;;;;;;;16.96;100.00;100276.06;6258605;28;20049;-88
2022/08/19 04:12:46;;;;;;;11.50;8.57;;;;;;;16.95;100.00;100281.50;6259178;28;20052;-89
2022/08/19 04:15:49;;;;;;;12.45;8.07;;;;;;;16.85;100.00;100289.53;6258162;28;20045;-89
2022/08/19 04:18:51;;;;;;;12.00;8.10;;;;;;;16.86;100.00;100287.72;6252292;28;20580;-89
2022/08/19 04:21:54;;;;;;;12.43;8.52;;;;;;;16.85;100.00;100284.31;6247972;28;20041;-89
2022/08/19 04:24:55;;;;;;;12.88;8.38;;;;;;;16.85;100.00;100276.44;6261729;28;20029;-89
2022/08/19 04:27:57;;;;;;;12.98;8.35;;;;;;;16.84;100.00;100274.81;6250083;28;20451;-89
2022/08/19 04:30:59;;;;;;;13.95;8.50;;;;;;;16.85;100.00;100267.81;6254905;28;20542;-88
2022/08/19 04:34:04;;;;;;;14.55;8.38;;;;;;;16.84;100.00;100263.53;6266815;28;20856;-89
2022/08/19 04:37:13;;;;;;;11.57;7.78;;;;;;;16.86;100.00;100259.78;6253742;28;20048;-89
2022/08/19 04:43:38;;;;;;;10.57;7.32;;;;;;;16.82;100.00;100262.88;6247026;28;20068;-88
2022/08/19 04:46:40;;;;;;;12.35;7.88;;;;;;;16.90;100.00;100268.13;6250226;28;20040;-88
2022/08/19 04:49:52;;;;;;;11.57;7.75;;;;;;;16.78;100.00;100270.25;6242139;28;20410;-89
2022/08/19 04:52:55;;;;;;;14.13;8.15;;;;;;;16.72;100.00;100273.50;6243913;28;20327;-89
2022/08/19 04:55:59;;;;;;;11.35;7.97;;;;;;;16.66;100.00;100276.78;6243170;28;20830;-89
2022/08/19 04:59:04;;;;;;;10.85;7.53;;;;;;;16.66;100.00;100289.88;6247066;28;20044;-88
2022/08/19 05:02:08;;;;;;;12.50;7.90;;;;;;;16.71;100.00;100280.53;6230606;28;20041;-88
2022/08/19 05:05:10;;;;;;;14.50;8.55;;;;;;;16.73;100.00;100291.63;6249022;28;20095;-89
2022/08/19 05:08:18;;;;;;;11.07;7.97;;;;;;;16.71;100.00;100301.44;6253734;28;20187;-89
2022/08/19 05:11:38;;;;;;;10.70;7.80;;;;;;;16.71;100.00;100290.19;6247510;28;20382;-89
2022/08/19 05:14:40;;;;;;;13.45;8.35;;;;;;;16.77;100.00;100284.31;6252523;28;20290;-89
2022/08/19 05:22:31;;;;;;;13.98;8.27;;;;;;;16.84;100.00;100281.84;6260898;28;20048;-89
2022/08/19 05:24:36;;;;;;;15.30;8.85;;;;;;;16.89;100.00;100276.91;6256806;28;20052;-89
2022/08/19 05:27:58;;;;;;;16.55;9.43;;;;;;;16.91;100.00;100277.56;6258439;28;20045;-89
2022/08/19 05:31:00;;;;;;;14.85;9.27;;;;;;;16.99;100.00;100278.38;6256960;28;20415;-89
2022/08/19 05:34:04;;;;;;;16.33;10.07;;;;;;;17.09;100.00;100282.56;6245650;28;20041;-89
2022/08/19 05:37:19;;;;;;;17.38;9.63;;;;;;;17.11;100.00;100280.59;6263845;28;20494;-89
2022/08/19 05:40:20;;;;;;;16.58;10.23;;;;;;;17.12;100.00;100274.41;6277349;28;20178;-88
2022/08/19 05:43:23;;;;;;;15.73;9.40;;;;;;;17.14;100.00;100283.72;6279054;28;20053;-89
2022/08/19 05:46:25;;;;;;;19.27;10.82;;;;;;;17.16;100.00;100275.69;6275671;28;20127;-89
2022/08/19 05:49:29;;;;;;;17.73;10.77;;;;;;;17.18;100.00;100276.31;6274868;28;20048;-89
2022/08/19 05:52:31;;;;;;;18.52;10.48;;;;;;;17.29;100.00;100262.03;6265479;28;20044;-89
2022/08/19 05:55:35;;;;;;;16.65;10.88;;;;;;;17.28;100.00;100270.88;6273457;28;20703;-89
2022/08/19 05:58:37;;;;;;;18.77;10.82;;;;;;;17.21;100.00;100275.97;6268515;28;20087;-89
2022/08/19 06:01:42;;;;;;;18.30;10.63;;;;;;;17.20;100.00;100279.59;6264114;28;20415;-89
2022/08/19 06:04:44;;;;;;;19.13;11.82;;;;;;;17.17;100.00;100287.78;6265037;28;20371;-89
2022/08/19 06:07:45;;;;;;;18.55;11.32;;;;;;;17.18;100.00;100284.97;6278814;28;20048;-89
2022/08/19 06:10:47;;;;;;;18.65;10.75;;;;;;;17.24;100.00;100293.94;6271772;28;20463;-89
2022/08/19 06:13:53;;;;;;;23.23;12.13;;;;;;;17.28;100.00;100297.88;6263291;28;20228;-88
2022/08/19 06:17:02;;;;;;;20.48;10.98;;;;;;;17.19;100.00;100294.47;6251237;28;20431;-89
2022/08/19 06:20:12;;;;;;;17.58;11.05;;;;;;;17.12;100.00;100287.47;6262719;28;20041;-88
2022/08/19 06:23:14;;;;;;;18.95;11.07;;;;;;;17.10;100.00;100299.91;6272787;28;20072;-89
2022/08/19 06:26:19;;;;;;;20.58;11.88;;;;;;;17.12;100.00;100305.78;6283801;28;20052;-88
2022/08/19 06:29:23;;;;;;;19.13;11.65;;;;;;;17.22;100.00;100304.59;6277381;28;20048;-89
2022/08/19 06:32:25;;;;;;;19.20;12.50;;;;;;;17.27;100.00;100314.56;6256136;28;20499;-89
2022/08/19 06:35:29;;;;;;;20.73;12.10;;;;;;;17.32;100.00;100314.06;6271252;28;20052;-88
2022/08/19 06:38:33;;;;;;;21.63;12.10;;;;;;;17.45;100.00;100306.44;6275025;28;20037;-89
2022/08/19 06:41:37;;;;;;;18.52;12.02;;;;;;;17.59;100.00;100315.38;6273685;28;20053;-89
2022/08/19 06:44:51;;;;;;;19.13;11.20;;;;;;;17.69;100.00;100325.63;6265379;28;20120;-88
2022/08/19 06:47:55;;;;;;;17.85;12.05;;;;;;;17.71;100.00;100326.25;6273826;28;20048;-89
2022/08/19 06:50:57;;;;;;;24.30;12.65;;;;;;;17.90;100.00;100327.66;6270659;28;20690;-89
2022/08/19 06:54:00;;;;;;;21.33;12.15;;;;;;;18.02;100.00;100334.13;6269513;28;20048;-89
2022/08/19 06:57:02;;;;;;;21.17;13.25;;;;;;;18.23;100.00;100339.53;6258859;28;20044;-88
2022/08/19 07:00:10;;;;;;;19.58;12.73;;;;;;;18.40;100.00;100331.53;6256284;28;20076;-88
2022/08/19 07:03:13;;;;;;;18.05;12.32;;;;;;;18.57;100.00;100329.59;6255077;28;20063;-88
2022/08/19 07:06:17;;;;;;;20.58;11.98;;;;;;;18.80;100.00;100350.53;6255258;28;20408;-88
2022/08/19 07:09:41;;;;;;;18.55;12.00;;;;;;;19.11;100.00;100353.00;6253529;28;20064;-87
2022/08/19 07:12:43;;;;;;;17.58;11.90;;;;;;;19.34;100.00;100345.03;6254735;28;20045;-88
2022/08/19 07:15:46;;;;;;;19.08;11.95;;;;;;;19.62;100.00;100350.41;6252542;28;20045;-88
2022/08/19 07:18:50;;;;;;;18.38;12.20;;;;;;;19.75;100.00;100355.84;6250353;28;20048;-88
2022/08/19 07:22:00;;;;;;;18.40;12.32;;;;;;;19.90;100.00;100368.94;6244754;28;20049;-87
2022/08/19 07:25:03;;;;;;;17.00;11.02;;;;;;;19.98;100.00;100366.19;6249991;28;20048;-88
2022/08/19 07:28:07;;;;;;;15.77;10.15;;;;;;;19.98;100.00;100368.81;6238859;28;20451;-87
2022/08/19 07:31:24;;;;;;;13.88;8.70;;;;;;;19.98;100.00;100379.31;6255843;28;20041;-88
2022/08/19 07:34:28;;;;;;;10.82;8.25;;;;;;;19.95;100.00;100379.69;6248408;28;20502;-88
2022/08/19 07:37:30;;;;;;;12.88;8.18;;;;;;;19.94;100.00;100385.94;6258901;28;20045;-88
2022/08/19 07:40:34;;;;;;;11.48;8.20;;;;;;;20.06;100.00;100388.09;6259984;28;20064;-88
2022/08/19 07:43:36;;;;;;;11.02;7.45;;;;;;;20.17;100.00;100405.97;6259024;28;20037;-88
2022/08/19 07:46:40;;;;;;;9.20;7.00;;;;;;;20.23;100.00;100413.94;6266594;28;20036;-88
2022/08/19 07:49:42;;;;;;;11.98;7.25;;;;;;;20.35;100.00;100413.47;6277184;28;20406;-87
2022/08/19 07:52:44;;;;;;;12.95;6.78;;;;;;;20.48;100.00;100420.66;6273091;28;20048;-88
2022/08/19 07:55:51;;;;;;;9.85;6.72;;;;;;;20.61;100.00;100428.69;6271295;28;20048;-88
2022/08/19 07:58:53;;;;;;;8.60;6.10;;;;;;;20.62;100.00;100419.78;6254390;28;20049;-88
2022/08/19 08:01:56;;;;;;;6.70;5.18;;;;;;;20.82;99.00;100414.69;6258590;28;20175;-89
2022/08/19 08:11:52;;;;;;;8.23;6.05;;;;;;;21.04;95.19;100424.16;6274674;28;20068;-87
2022/08/19 08:14:57;;;;;;;10.60;6.32;;;;;;;21.17;94.62;100422.63;6268270;28;20475;-87
2022/08/19 08:17:59;;;;;;;10.55;6.15;;;;;;;21.27;93.75;100423.91;6253346;28;20388;-89
2022/08/19 08:21:01;;;;;;;8.52;5.90;;;;;;;21.31;91.70;100426.94;6247196;28;20052;-87
2022/08/19 08:24:03;;;;;;;10.40;6.13;;;;;;;21.19;91.67;100420.59;6252012;28;20357;-87
2022/08/19 08:27:05;;;;;;;9.10;5.60;;;;;;;21.28;90.05;100414.16;6250660;28;20029;-87
2022/08/19 08:30:16;;;;;;;8.68;4.97;;;;;;;21.41;88.72;100416.91;6253344;28;20628;-87
2022/08/19 08:33:21;;;;;;;7.57;5.13;;;;;;;21.51;89.02;100416.53;6265247;28;20040;-87
2022/08/19 08:36:41;;;;;;;7.22;5.65;;;;;;;21.48;87.49;100425.66;6254474;28;20319;-88
2022/08/19 08:39:43;;;;;;;5.13;4.60;;;;;;;21.52;87.86;100425.28;6243073;28;20033;-88
2022/08/19 08:42:54;;;;;;;7.32;5.13;;;;;;;21.60;88.03;100425.09;6244737;28;20075;-88
2022/08/19 08:46:12;;;;;;;6.18;4.90;;;;;;;21.73;85.16;100423.31;6255250;28;20045;-88
2022/08/19 08:49:56;;;;;;;9.77;5.28;;;;;;;21.84;85.17;100429.06;6259847;28;20479;-88
2022/08/19 08:52:58;;;;;;;5.75;4.72;;;;;;;22.04;81.87;100429.13;6247670;28;20037;-87
2022/08/19 08:56:05;;;;;;;7.47;4.65;;;;;;;22.19;81.57;100421.03;6254791;28;20491;-90
2022/08/19 08:59:19;;;;;;;6.20;4.80;;;;;;;22.31;81.53;100425.56;6251123;28;20537;-88
2022/08/19 09:02:21;;;;;;;9.43;4.68;;;;;;;22.20;79.96;100428.75;6250704;28;20048;-89
2022/08/19 09:05:33;;;;;;;5.47;4.32;;;;;;;21.98;81.47;100429.91;6249003;28;20091;-90
2022/08/19 09:09:15;;;;;;;5.32;4.20;;;;;;;22.39;80.70;100429.81;6263623;28;20045;-88
2022/08/19 09:12:56;;;;;;;6.28;3.90;;;;;;;22.67;79.62;100429.63;6257466;28;20456;-88
2022/08/19 09:16:26;;;;;;;7.30;4.82;;;;;;;22.55;79.18;100431.25;6253520;28;20056;-88
2022/08/19 09:19:29;;;;;;;6.78;4.35;;;;;;;22.72;80.90;100426.38;6271788;28;20407;-89
2022/08/19 09:22:32;;;;;;;6.38;5.38;;;;;;;22.70;78.25;100426.56;6268798;28;20049;-90
2022/08/19 09:25:34;;;;;;;5.18;3.75;;;;;;;22.43;77.84;100428.38;6264435;28;20045;-88
2022/08/19 09:28:36;;;;;;;6.55;3.85;;;;;;;22.39;78.07;100415.81;6266188;28;20045;-89
2022/08/19 09:31:39;;;;;;;5.97;3.92;;;;;;;22.20;77.69;100423.50;6257937;28;20344;-88
2022/08/19 09:34:41;;;;;;;5.85;4.10;;;;;;;22.20;79.31;100420.06;6257012;28;20149;-88
2022/08/19 09:37:45;;;;;;;5.65;3.50;;;;;;;22.24;79.13;100402.81;6274203;28;20044;-88
2022/08/19 09:40:48;;;;;;;3.58;3.13;;;;;;;22.19;77.92;100402.59;6272384;28;20506;-88
2022/08/19 09:43:55;;;;;;;6.32;2.60;;;;;;;22.18;75.86;100399.13;6268654;28;20049;-90
2022/08/19 09:46:57;;;;;;;3.35;2.20;;;;;;;21.88;77.56;100414.47;6273793;28;20123;-88
2022/08/19 09:49:59;;;;;;;4.22;2.95;;;;;;;21.76;75.64;100418.66;6273446;28;20052;-89
2022/08/19 09:53:01;;;;;;;3.33;1.98;;;;;;;21.64;74.34;100421.06;6258935;28;20037;-91
2022/08/19 09:56:05;;;;;;;2.40;2.10;;;;;;;21.42;75.15;100412.47;6265380;28;20052;-89
2022/08/19 09:59:10;;;;;;;3.13;2.20;;;;;;;21.48;75.65;100407.22;6255856;28;21706;-91
2022/08/19 10:02:11;;;;;;;2.53;1.80;;;;;;;21.41;72.79;100416.09;6253477;28;20494;-89
2022/08/19 10:08:36;;;;;;;2.35;1.80;;;;;;;21.50;70.54;100414.94;6267875;28;20504;-90
2022/08/19 10:11:49;;;;;;;1.92;1.50;;;;;;;21.65;69.29;100412.97;6267106;28;20033;-89
2022/08/19 10:14:56;;;;;;;2.38;1.80;;;;;;;21.75;67.51;100404.69;6258667;28;20801;-89
2022/08/19 10:17:59;;;;;;;1.90;1.80;;;;;;;21.80;68.88;100404.91;6259278;28;20044;-92
2022/08/19 10:21:08;;;;;;;4.07;2.00;;;;;;;21.88;71.25;100407.34;6250807;28;20048;-89
2022/08/19 10:24:12;;;;;;;3.65;2.10;;;;;;;22.03;71.54;100395.84;6257484;28;20041;-90
2022/08/19 10:27:14;;;;;;;3.20;2.22;;;;;;;22.11;72.35;100391.22;6265018;28;20143;-90
2022/08/19 10:30:16;;;;;;;4.03;1.90;;;;;;;22.26;71.11;100395.50;6271724;28;20041;-89
2022/08/19 10:33:18;;;;;;;2.42;1.90;;;;;;;22.30;67.64;100394.09;6266340;28;20366;-89
2022/08/19 10:36:40;;;;;;;3.08;2.13;;;;;;;22.37;68.07;100400.19;6259852;28;20037;-89
2022/08/19 10:40:01;;;;;;;2.38;1.70;;;;;;;22.34;69.07;100377.69;6246180;28;20061;-90
2022/08/19 10:43:04;;;;;;;2.03;1.65;;;;;;;22.45;65.70;100378.88;6260474;28;20159;-92
2022/08/19 10:46:08;;;;;;;4.07;2.00;;;;;;;22.24;67.38;100374.63;6265428;28;20516;-89
2022/08/19 10:49:15;;;;;;;2.17;2.03;;;;;;;22.23;68.62;100364.28;6261624;28;20489;-89
2022/08/19 10:52:33;;;;;;;3.00;2.17;;;;;;;22.35;67.51;100358.19;6269806;28;20041;-90
2022/08/19 10:59:00;;;;;;;2.90;1.90;;;;;;;22.49;63.87;100345.81;6261753;28;20044;-89
2022/08/19 11:02:04;;;;;;;2.30;1.80;;;;;;;22.56;64.39;100359.81;6258352;28;20041;-91
2022/08/19 11:05:09;;;;;;;3.42;2.13;;;;;;;22.75;62.99;100347.59;6261265;28;20532;-90
2022/08/19 11:08:13;;;;;;;1.70;1.60;;;;;;;22.96;63.13;100343.91;6277696;28;20040;-91
2022/08/19 11:11:24;;;;;;;2.50;1.90;;;;;;;23.09;60.33;100352.84;6279730;28;20723;-90
2022/08/19 11:14:27;;;;;;;2.03;1.80;;;;;;;23.11;60.71;100346.34;6262506;28;20514;-89
2022/08/19 11:17:33;;;;;;;2.17;1.63;;;;;;;23.12;61.54;100347.97;6274180;28;20049;-89
2022/08/19 11:20:36;;;;;;;2.72;2.05;;;;;;;23.09;60.29;100343.09;6270010;28;20040;-93
2022/08/19 11:23:39;;;;;;;2.97;1.60;;;;;;;23.07;58.98;100341.69;6269983;28;20033;-92
2022/08/19 11:26:42;;;;;;;2.70;1.75;;;;;;;23.07;58.90;100334.56;6255079;28;20053;-91
2022/08/19 11:29:44;;;;;;;1.70;1.60;;;;;;;23.10;60.68;100335.97;6261482;28;20207;-90
2022/08/19 11:32:47;;;;;;;1.73;1.45;;;;;;;22.99;57.30;100346.16;6238095;28;20430;-93
2022/08/19 11:35:50;;;;;;;2.85;1.70;;;;;;;22.97;57.88;100329.72;6247336;28;20068;-89
2022/08/19 11:38:52;;;;;;;2.40;1.70;;;;;;;23.06;58.04;100324.25;6260743;28;20408;-90
2022/08/19 11:41:55;;;;;;;3.15;1.80;;;;;;;23.08;55.99;100327.44;6245667;28;20413;-90
2022/08/19 11:44:56;;;;;;;3.83;1.30;;;;;;;23.11;54.23;100322.59;6255649;28;20584;-92
2022/08/19 11:47:59;;;;;;;3.58;1.77;;;;;;;23.26;56.45;100340.00;6249258;28;20045;-92
2022/08/19 11:51:11;;;;;;;2.08;1.50;;;;;;;23.23;55.15;100333.31;6263793;28;20075;-90
2022/08/19 11:54:15;;;;;;;1.48;1.38;;;;;;;23.21;55.87;100325.59;6252521;28;20045;-92
2022/08/19 11:57:19;;;;;;;3.17;1.70;;;;;;;23.23;54.50;100330.69;6254108;28;20045;-91
2022/08/19 12:00:21;;;;;;;4.25;1.73;;;;;;;23.27;55.54;100331.84;6263328;28;20029;-90
2022/08/19 12:03:23;;;;;;;1.33;1.23;;;;;;;23.53;57.06;100332.78;6259370;28;20143;-90
2022/08/19 12:06:32;;;;;;;2.78;1.55;;;;;;;23.80;55.07;100333.44;6255345;28;20083;-90
2022/08/19 12:09:34;;;;;;;4.32;1.55;;;;;;;23.78;51.96;100332.88;6254325;28;20443;-90
2022/08/19 12:12:40;;;;;;;1.52;1.38;;;;;;;23.81;53.14;100325.31;6252357;28;20044;-91
2022/08/19 12:15:41;;;;;;;1.65;1.55;;;;;;;23.91;53.39;100321.41;6261188;28;20490;-90
2022/08/19 12:18:46;;;;;;;3.10;1.55;;;;;;;24.08;53.33;100315.38;6261131;28;20130;-89
2022/08/19 12:21:48;;;;;;;2.22;1.73;;;;;;;24.30;52.42;100322.94;6269241;28;20041;-91
2022/08/19 12:24:52;;;;;;;1.83;1.45;;;;;;;24.27;53.14;100320.69;6263082;28;20064;-91
2022/08/19 12:27:54;;;;;;;2.38;1.35;;;;;;;24.45;51.48;100306.72;6252512;28;20211;-89
2022/08/19 12:30:58;;;;;;;2.17;1.65;;;;;;;24.82;53.62;100306.75;6259071;28;20041;-89
2022/08/19 12:34:02;;;;;;;3.05;1.65;;;;;;;25.09;52.56;100308.09;6255042;28;20049;-89
2022/08/19 12:37:05;;;;;;;2.92;1.80;;;;;;;25.39;50.10;100303.88;6262355;28;20536;-88
2022/08/19 12:40:08;;;;;;;3.20;1.70;;;;;;;25.41;50.70;100297.31;6260864;28;20489;-87
2022/08/19 12:43:11;;;;;;;2.13;1.70;;;;;;;25.54;50.91;100301.66;6264725;28;20395;-86
2022/08/19 12:46:14;;;;;;;2.85;1.60;;;;;;;25.82;49.72;100301.03;6274005;28;20076;-88
2022/08/19 12:49:18;;;;;;;2.55;1.40;;;;;;;26.10;51.52;100311.00;6273318;28;20099;-90
2022/08/19 12:52:41;;;;;;;2.28;1.70;;;;;;;26.27;47.18;100335.03;6264999;28;20045;-92
2022/08/19 12:55:44;;;;;;;1.75;1.50;;;;;;;26.14;49.14;100322.00;6256142;28;20048;-89
2022/08/19 12:58:46;;;;;;;1.60;1.48;;;;;;;26.33;47.69;100314.72;6252280;28;20053;-90
2022/08/19 13:01:51;;;;;;;1.50;1.40;;;;;;;26.45;47.28;100312.88;6259044;28;20140;-89
2022/08/19 13:04:53;;;;;;;2.13;1.27;;;;;;;26.58;47.33;100295.94;6262905;28;20124;-89
2022/08/19 13:07:59;;;;;;;2.03;1.33;;;;;;;26.85;47.39;100288.25;6252934;28;20090;-90
2022/08/19 13:11:14;;;;;;;1.98;1.60;;;;;;;27.10;46.95;100293.28;6253782;28;20458;-92
2022/08/19 13:14:17;;;;;;;1.45;1.35;;;;;;;27.16;47.04;100305.63;6256517;28;20049;-90
2022/08/19 13:17:20;;;;;;;2.35;1.23;;;;;;;27.19;48.36;100294.56;6258942;28;20037;-92
2022/08/19 13:20:23;;;;;;;1.40;1.30;;;;;;;27.49;46.40;100299.63;6247471;28;20033;-90
2022/08/19 13:23:24;;;;;;;1.60;1.30;;;;;;;27.41;44.17;100292.03;6254619;28;20034;-90
2022/08/19 13:26:27;;;;;;;1.10;1.10;;;;;;;27.34;44.46;100298.56;6252372;28;20046;-89
2022/08/19 13:36:11;;;;;;;1.05;0.95;;;;;;;27.49;44.98;100280.22;6258303;28;20064;-89
2022/08/19 13:39:13;;;;;;;1.27;1.10;;;;;;;27.53;42.48;100285.84;6252363;28;20041;-89
2022/08/19 13:42:17;;;;;;;1.52;1.00;;;;;;;27.62;43.27;100281.75;6261884;28;20069;-89
2022/08/19 13:45:23;;;;;;;1.15;1.00;;;;;;;27.59;42.99;100284.91;6232594;28;20044;-91
2022/08/19 13:48:27;;;;;;;0.95;0.93;;;;;;;27.78;43.00;100288.16;6225079;28;20509;-90
2022/08/19 13:51:29;;;;;;;1.45;1.00;;;;;;;28.01;41.69;100276.56;6223306;28;20296;-90
2022/08/19 13:54:32;;;;;;;2.15;1.10;;;;;;;28.38;40.24;100284.84;6226144;28;20045;-89
2022/08/19 13:57:44;;;;;;;1.48;1.10;;;;;;;28.58;41.05;100284.34;6215242;28;20129;-92
2022/08/19 14:01:07;;;;;;;1.60;1.08;;;;;;;28.75;41.75;100284.28;6221407;28;20051;-90
2022/08/19 14:04:15;;;;;;;1.17;1.00;;;;;;;28.93;40.68;100283.16;6222942;28;20033;-89
2022/08/19 14:07:48;;;;;;;2.20;1.10;;;;;;;29.07;40.71;100281.78;6218611;28;20084;-89
2022/08/19 14:11:19;;;;;;;1.60;1.13;;;;;;;29.14;40.82;100278.88;6228380;28;20410;-89
2022/08/19 14:14:21;;;;;;;1.90;1.10;;;;;;;29.19;41.07;100276.28;6232096;28;20116;-90
2022/08/19 14:17:24;;;;;;;1.58;1.00;;;;;;;29.22;39.94;100290.97;6249410;28;20068;-91
2022/08/19 14:20:26;;;;;;;1.38;1.05;;;;;;;29.19;40.32;100277.09;6255722;28;20120;-90
2022/08/19 14:23:29;;;;;;;1.20;1.10;;;;;;;29.27;39.91;100269.72;6268095;28;20482;-90
2022/08/19 14:26:30;;;;;;;2.95;1.35;;;;;;;29.18;39.13;100266.69;6268188;28;20040;-89
2022/08/19 14:29:34;;;;;;;1.20;1.10;;;;;;;29.27;38.63;100265.19;6260978;28;20052;-90
2022/08/19 14:32:36;;;;;;;1.15;1.05;;;;;;;29.18;39.31;100267.47;6261348;28;20206;-90
2022/08/19 14:35:38;;;;;;;1.83;1.30;;;;;;;29.18;40.72;100264.81;6280150;28;20564;-90
2022/08/19 14:38:40;;;;;;;1.45;1.05;;;;;;;29.18;38.95;100264.81;6276136;28;20044;-90